sensor_id;sensor_type;location;lat;lon;timestamp;P1;durP1;ratioP1;P2;durP2;ratioP2
72939;SDS011;61094;51.154;13.570;2022-12-11T00:01:12;16.30;;;6.60;;
72939;SDS011;61094;51.154;13.570;2022-12-11T00:03:41;24.55;;;9.38;;
72939;SDS011;61094;51.154;13.570;2022-12-11T00:06:09;20.80;;;8.40;;
72939;SDS011;61094;51.154;13.570;2022-12-11T00:08:37;21.30;;;8.25;;
72939;SDS011;61094;51.154;13.570;2022-12-11T00:11:06;18.13;;;8.60;;
72939;SDS011;61094;51.154;13.570;2022-12-11T00:13:35;22.13;;;6.47;;
72939;SDS011;61094;51.154;13.570;2022-12-11T00:16:02;22.52;;;9.48;;
72939;SDS011;61094;51.154;13.570;2022-12-11T00:18:28;24.15;;;7.78;;
72939;SDS011;61094;51.154;13.570;2022-12-11T00:20:58;21.70;;;9.60;;
72939;SDS011;61094;51.154;13.570;2022-12-11T00:23:25;21.10;;;7.85;;
72939;SDS011;61094;51.154;13.570;2022-12-11T00:25:52;23.98;;;9.13;;
72939;SDS011;61094;51.154;13.570;2022-12-11T00:28:18;20.52;;;7.90;;
72939;SDS011;61094;51.154;13.570;2022-12-11T00:30:47;24.23;;;8.20;;
72939;SDS011;61094;51.154;13.570;2022-12-11T00:33:14;15.73;;;7.20;;
72939;SDS011;61094;51.154;13.570;2022-12-11T00:35:43;19.63;;;6.75;;
72939;SDS011;61094;51.154;13.570;2022-12-11T00:38:13;21.25;;;8.45;;
72939;SDS011;61094;51.154;13.570;2022-12-11T00:40:41;25.23;;;9.23;;
72939;SDS011;61094;51.154;13.570;2022-12-11T00:43:08;17.13;;;6.78;;
72939;SDS011;61094;51.154;13.570;2022-12-11T00:45:36;20.40;;;9.23;;
72939;SDS011;61094;51.154;13.570;2022-12-11T00:48:04;28.02;;;8.45;;
72939;SDS011;61094;51.154;13.570;2022-12-11T00:50:32;18.73;;;8.90;;
72939;SDS011;61094;51.154;13.570;2022-12-11T00:52:59;22.70;;;9.52;;
72939;SDS011;61094;51.154;13.570;2022-12-11T00:55:26;15.95;;;7.10;;
72939;SDS011;61094;51.154;13.570;2022-12-11T00:57:53;30.98;;;8.25;;
72939;SDS011;61094;51.154;13.570;2022-12-11T01:00:20;18.98;;;8.13;;
72939;SDS011;61094;51.154;13.570;2022-12-11T01:02:46;21.80;;;7.25;;
72939;SDS011;61094;51.154;13.570;2022-12-11T01:05:15;20.48;;;7.72;;
72939;SDS011;61094;51.154;13.570;2022-12-11T01:07:42;19.65;;;6.93;;
72939;SDS011;61094;51.154;13.570;2022-12-11T01:10:09;19.25;;;9.15;;
72939;SDS011;61094;51.154;13.570;2022-12-11T01:12:48;19.27;;;6.57;;
72939;SDS011;61094;51.154;13.570;2022-12-11T01:15:15;18.00;;;8.10;;
72939;SDS011;61094;51.154;13.570;2022-12-11T01:17:42;18.73;;;8.07;;
72939;SDS011;61094;51.154;13.570;2022-12-11T01:20:09;15.93;;;8.15;;
72939;SDS011;61094;51.154;13.570;2022-12-11T01:22:38;21.45;;;7.95;;
72939;SDS011;61094;51.154;13.570;2022-12-11T01:25:05;22.25;;;7.10;;
72939;SDS011;61094;51.154;13.570;2022-12-11T01:27:33;23.92;;;7.30;;
72939;SDS011;61094;51.154;13.570;2022-12-11T01:30:00;21.45;;;8.13;;
72939;SDS011;61094;51.154;13.570;2022-12-11T01:32:27;23.42;;;6.72;;
72939;SDS011;61094;51.154;13.570;2022-12-11T01:34:54;21.08;;;7.68;;
72939;SDS011;61094;51.154;13.570;2022-12-11T01:37:20;26.23;;;10.20;;
72939;SDS011;61094;51.154;13.570;2022-12-11T01:39:48;19.58;;;8.63;;
72939;SDS011;61094;51.154;13.570;2022-12-11T01:42:16;16.52;;;7.20;;
72939;SDS011;61094;51.154;13.570;2022-12-11T01:47:56;15.35;;;7.25;;
72939;SDS011;61094;51.154;13.570;2022-12-11T01:50:27;17.88;;;6.97;;
72939;SDS011;61094;51.154;13.570;2022-12-11T01:52:58;14.77;;;7.03;;
72939;SDS011;61094;51.154;13.570;2022-12-11T01:55:27;22.38;;;7.57;;
72939;SDS011;61094;51.154;13.570;2022-12-11T01:57:54;17.63;;;7.35;;
72939;SDS011;61094;51.154;13.570;2022-12-11T02:00:20;21.30;;;7.13;;
72939;SDS011;61094;51.154;13.570;2022-12-11T02:02:47;18.58;;;7.60;;
72939;SDS011;61094;51.154;13.570;2022-12-11T02:05:14;21.85;;;9.90;;
72939;SDS011;61094;51.154;13.570;2022-12-11T02:07:41;48.42;;;21.35;;
72939;SDS011;61094;51.154;13.570;2022-12-11T02:10:11;23.30;;;9.52;;
72939;SDS011;61094;51.154;13.570;2022-12-11T02:12:42;16.92;;;7.00;;
72939;SDS011;61094;51.154;13.570;2022-12-11T02:15:20;17.17;;;7.38;;
72939;SDS011;61094;51.154;13.570;2022-12-11T02:18:04;16.85;;;7.07;;
72939;SDS011;61094;51.154;13.570;2022-12-11T02:20:41;18.08;;;6.47;;
72939;SDS011;61094;51.154;13.570;2022-12-11T02:23:24;12.95;;;6.00;;
72939;SDS011;61094;51.154;13.570;2022-12-11T02:26:18;16.13;;;6.65;;
72939;SDS011;61094;51.154;13.570;2022-12-11T02:28:55;19.38;;;7.80;;
72939;SDS011;61094;51.154;13.570;2022-12-11T02:31:25;14.95;;;6.05;;
72939;SDS011;61094;51.154;13.570;2022-12-11T02:33:56;15.52;;;6.65;;
72939;SDS011;61094;51.154;13.570;2022-12-11T02:36:27;18.55;;;7.47;;
72939;SDS011;61094;51.154;13.570;2022-12-11T02:38:57;14.63;;;6.15;;
72939;SDS011;61094;51.154;13.570;2022-12-11T02:41:26;18.10;;;6.93;;
72939;SDS011;61094;51.154;13.570;2022-12-11T02:43:56;18.48;;;6.85;;
72939;SDS011;61094;51.154;13.570;2022-12-11T02:46:24;14.65;;;7.28;;
72939;SDS011;61094;51.154;13.570;2022-12-11T02:48:52;16.08;;;6.22;;
72939;SDS011;61094;51.154;13.570;2022-12-11T02:51:21;20.05;;;8.40;;
72939;SDS011;61094;51.154;13.570;2022-12-11T02:53:51;18.08;;;6.05;;
72939;SDS011;61094;51.154;13.570;2022-12-11T02:56:23;15.32;;;6.57;;
72939;SDS011;61094;51.154;13.570;2022-12-11T02:58:56;15.25;;;5.85;;
72939;SDS011;61094;51.154;13.570;2022-12-11T03:01:26;16.95;;;5.47;;
72939;SDS011;61094;51.154;13.570;2022-12-11T03:03:53;14.80;;;5.90;;
72939;SDS011;61094;51.154;13.570;2022-12-11T03:06:21;18.27;;;7.05;;
72939;SDS011;61094;51.154;13.570;2022-12-11T03:08:51;19.60;;;6.43;;
72939;SDS011;61094;51.154;13.570;2022-12-11T03:11:18;18.58;;;8.02;;
72939;SDS011;61094;51.154;13.570;2022-12-11T03:13:45;12.90;;;5.53;;
72939;SDS011;61094;51.154;13.570;2022-12-11T03:16:14;14.73;;;7.25;;
72939;SDS011;61094;51.154;13.570;2022-12-11T03:18:49;12.70;;;4.53;;
72939;SDS011;61094;51.154;13.570;2022-12-11T03:21:23;24.40;;;8.43;;
72939;SDS011;61094;51.154;13.570;2022-12-11T03:23:59;14.93;;;5.60;;
72939;SDS011;61094;51.154;13.570;2022-12-11T03:26:31;15.20;;;5.35;;
72939;SDS011;61094;51.154;13.570;2022-12-11T03:29:03;18.92;;;7.07;;
72939;SDS011;61094;51.154;13.570;2022-12-11T03:31:39;18.10;;;8.23;;
72939;SDS011;61094;51.154;13.570;2022-12-11T03:34:09;13.10;;;5.53;;
72939;SDS011;61094;51.154;13.570;2022-12-11T03:36:41;10.85;;;5.03;;
72939;SDS011;61094;51.154;13.570;2022-12-11T03:39:11;14.80;;;7.03;;
72939;SDS011;61094;51.154;13.570;2022-12-11T03:41:42;17.30;;;8.45;;
72939;SDS011;61094;51.154;13.570;2022-12-11T03:44:10;21.02;;;6.43;;
72939;SDS011;61094;51.154;13.570;2022-12-11T03:46:39;19.88;;;7.57;;
72939;SDS011;61094;51.154;13.570;2022-12-11T03:49:09;19.52;;;7.40;;
72939;SDS011;61094;51.154;13.570;2022-12-11T03:51:40;9.65;;;4.72;;
72939;SDS011;61094;51.154;13.570;2022-12-11T03:54:08;13.90;;;5.18;;
72939;SDS011;61094;51.154;13.570;2022-12-11T03:56:35;15.68;;;6.40;;
72939;SDS011;61094;51.154;13.570;2022-12-11T03:59:05;13.88;;;6.20;;
72939;SDS011;61094;51.154;13.570;2022-12-11T04:01:32;17.00;;;7.07;;
72939;SDS011;61094;51.154;13.570;2022-12-11T04:04:00;20.85;;;7.40;;
72939;SDS011;61094;51.154;13.570;2022-12-11T04:06:27;11.23;;;5.25;;
72939;SDS011;61094;51.154;13.570;2022-12-11T04:08:54;19.23;;;8.27;;
72939;SDS011;61094;51.154;13.570;2022-12-11T04:11:21;18.88;;;7.03;;
72939;SDS011;61094;51.154;13.570;2022-12-11T04:14:00;18.38;;;6.38;;
72939;SDS011;61094;51.154;13.570;2022-12-11T04:16:41;19.50;;;6.50;;
72939;SDS011;61094;51.154;13.570;2022-12-11T04:19:09;15.57;;;5.28;;
72939;SDS011;61094;51.154;13.570;2022-12-11T04:21:53;19.08;;;6.25;;
72939;SDS011;61094;51.154;13.570;2022-12-11T04:24:52;25.80;;;7.18;;
72939;SDS011;61094;51.154;13.570;2022-12-11T04:27:18;19.95;;;6.78;;
72939;SDS011;61094;51.154;13.570;2022-12-11T04:29:59;14.75;;;6.28;;
72939;SDS011;61094;51.154;13.570;2022-12-11T04:32:26;14.07;;;6.20;;
72939;SDS011;61094;51.154;13.570;2022-12-11T04:34:54;13.52;;;6.07;;
72939;SDS011;61094;51.154;13.570;2022-12-11T04:37:21;23.90;;;6.35;;
72939;SDS011;61094;51.154;13.570;2022-12-11T04:39:47;15.57;;;6.22;;
72939;SDS011;61094;51.154;13.570;2022-12-11T04:42:14;21.58;;;8.20;;
72939;SDS011;61094;51.154;13.570;2022-12-11T04:44:41;15.85;;;6.70;;
72939;SDS011;61094;51.154;13.570;2022-12-11T04:47:08;18.80;;;6.35;;
72939;SDS011;61094;51.154;13.570;2022-12-11T04:49:34;13.68;;;4.60;;
72939;SDS011;61094;51.154;13.570;2022-12-11T04:52:03;18.13;;;6.10;;
72939;SDS011;61094;51.154;13.570;2022-12-11T04:54:30;13.13;;;4.63;;
72939;SDS011;61094;51.154;13.570;2022-12-11T04:56:57;15.27;;;6.45;;
72939;SDS011;61094;51.154;13.570;2022-12-11T04:59:24;16.10;;;6.05;;
72939;SDS011;61094;51.154;13.570;2022-12-11T05:01:51;22.25;;;7.43;;
72939;SDS011;61094;51.154;13.570;2022-12-11T05:04:17;18.35;;;5.85;;
72939;SDS011;61094;51.154;13.570;2022-12-11T05:06:44;12.73;;;5.40;;
72939;SDS011;61094;51.154;13.570;2022-12-11T05:09:12;11.25;;;4.18;;
72939;SDS011;61094;51.154;13.570;2022-12-11T05:11:39;17.13;;;5.72;;
72939;SDS011;61094;51.154;13.570;2022-12-11T05:14:06;14.25;;;6.07;;
72939;SDS011;61094;51.154;13.570;2022-12-11T05:16:33;11.45;;;4.80;;
72939;SDS011;61094;51.154;13.570;2022-12-11T05:18:59;13.73;;;4.10;;
72939;SDS011;61094;51.154;13.570;2022-12-11T05:21:26;7.00;;;2.83;;
72939;SDS011;61094;51.154;13.570;2022-12-11T05:23:53;9.85;;;4.07;;
72939;SDS011;61094;51.154;13.570;2022-12-11T05:26:21;11.35;;;3.30;;
72939;SDS011;61094;51.154;13.570;2022-12-11T05:28:49;8.73;;;3.03;;
72939;SDS011;61094;51.154;13.570;2022-12-11T05:31:18;11.23;;;4.03;;
72939;SDS011;61094;51.154;13.570;2022-12-11T05:33:45;10.45;;;3.70;;
72939;SDS011;61094;51.154;13.570;2022-12-11T05:36:14;10.48;;;3.85;;
72939;SDS011;61094;51.154;13.570;2022-12-11T05:38:43;11.25;;;4.80;;
72939;SDS011;61094;51.154;13.570;2022-12-11T05:41:11;14.43;;;4.18;;
72939;SDS011;61094;51.154;13.570;2022-12-11T05:43:40;9.38;;;3.78;;
72939;SDS011;61094;51.154;13.570;2022-12-11T05:46:08;5.63;;;3.30;;
72939;SDS011;61094;51.154;13.570;2022-12-11T05:48:35;8.90;;;4.28;;
72939;SDS011;61094;51.154;13.570;2022-12-11T05:51:03;14.30;;;4.47;;
72939;SDS011;61094;51.154;13.570;2022-12-11T05:53:31;8.70;;;3.50;;
72939;SDS011;61094;51.154;13.570;2022-12-11T05:56:01;9.60;;;3.03;;
72939;SDS011;61094;51.154;13.570;2022-12-11T05:58:28;10.90;;;4.22;;
72939;SDS011;61094;51.154;13.570;2022-12-11T06:00:56;8.43;;;3.47;;
72939;SDS011;61094;51.154;13.570;2022-12-11T06:03:23;10.15;;;4.28;;
72939;SDS011;61094;51.154;13.570;2022-12-11T06:05:50;11.43;;;3.80;;
72939;SDS011;61094;51.154;13.570;2022-12-11T06:08:17;7.82;;;2.35;;
72939;SDS011;61094;51.154;13.570;2022-12-11T06:10:44;9.18;;;2.85;;
72939;SDS011;61094;51.154;13.570;2022-12-11T06:13:11;12.90;;;3.90;;
72939;SDS011;61094;51.154;13.570;2022-12-11T06:15:38;8.13;;;2.92;;
72939;SDS011;61094;51.154;13.570;2022-12-11T06:18:06;9.65;;;3.85;;
72939;SDS011;61094;51.154;13.570;2022-12-11T06:20:33;9.05;;;4.00;;
72939;SDS011;61094;51.154;13.570;2022-12-11T06:23:00;8.05;;;2.20;;
72939;SDS011;61094;51.154;13.570;2022-12-11T06:25:27;12.45;;;4.88;;
72939;SDS011;61094;51.154;13.570;2022-12-11T06:27:54;6.95;;;2.53;;
72939;SDS011;61094;51.154;13.570;2022-12-11T06:30:21;9.30;;;4.55;;
72939;SDS011;61094;51.154;13.570;2022-12-11T06:32:48;7.60;;;2.53;;
72939;SDS011;61094;51.154;13.570;2022-12-11T06:35:17;9.90;;;2.95;;
72939;SDS011;61094;51.154;13.570;2022-12-11T06:37:43;10.02;;;3.20;;
72939;SDS011;61094;51.154;13.570;2022-12-11T06:40:10;13.35;;;4.03;;
72939;SDS011;61094;51.154;13.570;2022-12-11T06:42:37;17.75;;;4.90;;
72939;SDS011;61094;51.154;13.570;2022-12-11T06:45:04;11.38;;;4.85;;
72939;SDS011;61094;51.154;13.570;2022-12-11T06:47:32;17.13;;;5.63;;
72939;SDS011;61094;51.154;13.570;2022-12-11T06:49:58;10.80;;;3.80;;
72939;SDS011;61094;51.154;13.570;2022-12-11T06:52:27;12.02;;;4.20;;
72939;SDS011;61094;51.154;13.570;2022-12-11T06:54:54;13.50;;;6.05;;
72939;SDS011;61094;51.154;13.570;2022-12-11T06:57:21;12.00;;;3.95;;
72939;SDS011;61094;51.154;13.570;2022-12-11T06:59:48;8.93;;;2.85;;
72939;SDS011;61094;51.154;13.570;2022-12-11T07:02:16;8.00;;;2.70;;
72939;SDS011;61094;51.154;13.570;2022-12-11T07:04:44;9.27;;;3.97;;
72939;SDS011;61094;51.154;13.570;2022-12-11T07:07:11;6.75;;;3.08;;
72939;SDS011;61094;51.154;13.570;2022-12-11T07:09:39;9.68;;;3.08;;
72939;SDS011;61094;51.154;13.570;2022-12-11T07:12:06;7.43;;;2.15;;
72939;SDS011;61094;51.154;13.570;2022-12-11T07:14:33;6.78;;;2.63;;
72939;SDS011;61094;51.154;13.570;2022-12-11T07:17:00;5.00;;;2.50;;
72939;SDS011;61094;51.154;13.570;2022-12-11T07:19:27;10.50;;;3.45;;
72939;SDS011;61094;51.154;13.570;2022-12-11T07:21:54;4.95;;;2.05;;
72939;SDS011;61094;51.154;13.570;2022-12-11T07:24:20;8.45;;;4.20;;
72939;SDS011;61094;51.154;13.570;2022-12-11T07:26:49;18.30;;;7.57;;
72939;SDS011;61094;51.154;13.570;2022-12-11T07:29:16;7.47;;;3.40;;
72939;SDS011;61094;51.154;13.570;2022-12-11T07:31:43;7.78;;;3.60;;
72939;SDS011;61094;51.154;13.570;2022-12-11T07:34:11;8.23;;;3.38;;
72939;SDS011;61094;51.154;13.570;2022-12-11T07:36:38;10.50;;;2.92;;
72939;SDS011;61094;51.154;13.570;2022-12-11T07:39:05;11.50;;;3.25;;
72939;SDS011;61094;51.154;13.570;2022-12-11T07:41:33;9.00;;;5.22;;
72939;SDS011;61094;51.154;13.570;2022-12-11T07:44:01;7.35;;;2.83;;
72939;SDS011;61094;51.154;13.570;2022-12-11T07:46:29;9.98;;;4.05;;
72939;SDS011;61094;51.154;13.570;2022-12-11T07:48:58;6.78;;;2.85;;
72939;SDS011;61094;51.154;13.570;2022-12-11T07:51:26;8.27;;;3.58;;
72939;SDS011;61094;51.154;13.570;2022-12-11T07:53:55;8.60;;;3.00;;
72939;SDS011;61094;51.154;13.570;2022-12-11T07:56:24;8.40;;;3.63;;
72939;SDS011;61094;51.154;13.570;2022-12-11T07:58:52;7.13;;;2.95;;
72939;SDS011;61094;51.154;13.570;2022-12-11T08:01:21;8.93;;;3.95;;
72939;SDS011;61094;51.154;13.570;2022-12-11T08:03:50;13.20;;;4.03;;
72939;SDS011;61094;51.154;13.570;2022-12-11T08:06:17;7.63;;;3.03;;
72939;SDS011;61094;51.154;13.570;2022-12-11T08:08:45;7.38;;;2.90;;
72939;SDS011;61094;51.154;13.570;2022-12-11T08:11:13;6.80;;;2.25;;
72939;SDS011;61094;51.154;13.570;2022-12-11T08:13:40;12.65;;;3.92;;
72939;SDS011;61094;51.154;13.570;2022-12-11T08:16:09;10.68;;;3.00;;
72939;SDS011;61094;51.154;13.570;2022-12-11T08:21:07;9.32;;;4.15;;
72939;SDS011;61094;51.154;13.570;2022-12-11T08:23:36;12.23;;;4.80;;
72939;SDS011;61094;51.154;13.570;2022-12-11T08:26:03;19.30;;;8.80;;
72939;SDS011;61094;51.154;13.570;2022-12-11T08:28:31;7.43;;;2.83;;
72939;SDS011;61094;51.154;13.570;2022-12-11T08:30:58;11.23;;;3.10;;
72939;SDS011;61094;51.154;13.570;2022-12-11T08:33:25;10.57;;;4.30;;
72939;SDS011;61094;51.154;13.570;2022-12-11T08:35:53;11.55;;;4.47;;
72939;SDS011;61094;51.154;13.570;2022-12-11T08:38:20;6.20;;;2.70;;
72939;SDS011;61094;51.154;13.570;2022-12-11T08:40:47;12.93;;;4.72;;
72939;SDS011;61094;51.154;13.570;2022-12-11T08:43:13;12.20;;;3.92;;
72939;SDS011;61094;51.154;13.570;2022-12-11T08:45:40;11.52;;;4.13;;
72939;SDS011;61094;51.154;13.570;2022-12-11T08:48:07;13.15;;;4.47;;
72939;SDS011;61094;51.154;13.570;2022-12-11T08:50:34;12.52;;;3.72;;
72939;SDS011;61094;51.154;13.570;2022-12-11T08:53:03;12.10;;;5.63;;
72939;SDS011;61094;51.154;13.570;2022-12-11T08:55:30;7.32;;;2.63;;
72939;SDS011;61094;51.154;13.570;2022-12-11T08:57:57;9.82;;;3.20;;
72939;SDS011;61094;51.154;13.570;2022-12-11T09:00:24;10.45;;;4.10;;
72939;SDS011;61094;51.154;13.570;2022-12-11T09:02:50;9.20;;;3.58;;
72939;SDS011;61094;51.154;13.570;2022-12-11T09:05:17;10.85;;;4.28;;
72939;SDS011;61094;51.154;13.570;2022-12-11T09:07:44;8.13;;;2.67;;
72939;SDS011;61094;51.154;13.570;2022-12-11T09:10:12;8.15;;;3.63;;
72939;SDS011;61094;51.154;13.570;2022-12-11T09:12:39;6.70;;;3.80;;
72939;SDS011;61094;51.154;13.570;2022-12-11T09:15:06;9.00;;;3.15;;
72939;SDS011;61094;51.154;13.570;2022-12-11T09:17:33;8.38;;;4.32;;
72939;SDS011;61094;51.154;13.570;2022-12-11T09:20:00;14.27;;;5.70;;
72939;SDS011;61094;51.154;13.570;2022-12-11T09:22:26;15.88;;;6.55;;
72939;SDS011;61094;51.154;13.570;2022-12-11T09:24:53;9.00;;;3.50;;
72939;SDS011;61094;51.154;13.570;2022-12-11T09:27:21;8.98;;;3.75;;
72939;SDS011;61094;51.154;13.570;2022-12-11T09:29:48;8.63;;;3.35;;
72939;SDS011;61094;51.154;13.570;2022-12-11T09:32:15;7.00;;;2.50;;
72939;SDS011;61094;51.154;13.570;2022-12-11T09:34:42;10.30;;;4.20;;
72939;SDS011;61094;51.154;13.570;2022-12-11T09:37:09;9.50;;;3.75;;
72939;SDS011;61094;51.154;13.570;2022-12-11T09:39:36;11.10;;;4.10;;
72939;SDS011;61094;51.154;13.570;2022-12-11T09:42:03;9.45;;;3.53;;
72939;SDS011;61094;51.154;13.570;2022-12-11T09:44:42;8.90;;;3.13;;
72939;SDS011;61094;51.154;13.570;2022-12-11T09:47:15;6.82;;;2.85;;
72939;SDS011;61094;51.154;13.570;2022-12-11T09:49:48;10.35;;;3.65;;
72939;SDS011;61094;51.154;13.570;2022-12-11T09:52:17;10.52;;;3.97;;
72939;SDS011;61094;51.154;13.570;2022-12-11T09:54:49;10.93;;;2.72;;
72939;SDS011;61094;51.154;13.570;2022-12-11T10:00:13;8.45;;;3.40;;
72939;SDS011;61094;51.154;13.570;2022-12-11T10:02:52;10.27;;;3.70;;
72939;SDS011;61094;51.154;13.570;2022-12-11T10:05:46;8.43;;;2.53;;
72939;SDS011;61094;51.154;13.570;2022-12-11T10:08:18;11.02;;;3.95;;
72939;SDS011;61094;51.154;13.570;2022-12-11T10:10:54;5.93;;;2.70;;
72939;SDS011;61094;51.154;13.570;2022-12-11T10:13:30;11.02;;;2.78;;
72939;SDS011;61094;51.154;13.570;2022-12-11T10:16:08;9.50;;;3.55;;
72939;SDS011;61094;51.154;13.570;2022-12-11T10:18:42;11.18;;;4.50;;
72939;SDS011;61094;51.154;13.570;2022-12-11T10:21:10;7.53;;;3.03;;
72939;SDS011;61094;51.154;13.570;2022-12-11T10:23:39;11.45;;;4.85;;
72939;SDS011;61094;51.154;13.570;2022-12-11T10:26:11;11.50;;;3.75;;
72939;SDS011;61094;51.154;13.570;2022-12-11T10:28:42;10.65;;;4.28;;
72939;SDS011;61094;51.154;13.570;2022-12-11T10:31:13;11.30;;;4.03;;
72939;SDS011;61094;51.154;13.570;2022-12-11T10:33:44;20.60;;;7.43;;
72939;SDS011;61094;51.154;13.570;2022-12-11T10:36:19;9.82;;;4.13;;
72939;SDS011;61094;51.154;13.570;2022-12-11T10:38:54;11.07;;;4.30;;
72939;SDS011;61094;51.154;13.570;2022-12-11T10:41:22;16.20;;;5.40;;
72939;SDS011;61094;51.154;13.570;2022-12-11T10:43:52;18.50;;;5.75;;
72939;SDS011;61094;51.154;13.570;2022-12-11T10:46:21;13.05;;;5.50;;
72939;SDS011;61094;51.154;13.570;2022-12-11T10:48:50;11.60;;;4.47;;
72939;SDS011;61094;51.154;13.570;2022-12-11T10:51:21;11.07;;;4.35;;
72939;SDS011;61094;51.154;13.570;2022-12-11T10:53:50;8.93;;;3.20;;
72939;SDS011;61094;51.154;13.570;2022-12-11T10:56:23;6.75;;;2.17;;
72939;SDS011;61094;51.154;13.570;2022-12-11T10:58:52;8.85;;;2.47;;
72939;SDS011;61094;51.154;13.570;2022-12-11T11:01:23;6.10;;;3.13;;
72939;SDS011;61094;51.154;13.570;2022-12-11T11:03:52;12.45;;;4.20;;
72939;SDS011;61094;51.154;13.570;2022-12-11T11:06:22;12.40;;;4.15;;
72939;SDS011;61094;51.154;13.570;2022-12-11T11:08:50;7.40;;;3.38;;
72939;SDS011;61094;51.154;13.570;2022-12-11T11:11:20;10.38;;;3.80;;
72939;SDS011;61094;51.154;13.570;2022-12-11T11:13:50;8.77;;;3.50;;
72939;SDS011;61094;51.154;13.570;2022-12-11T11:16:17;14.13;;;5.38;;
72939;SDS011;61094;51.154;13.570;2022-12-11T11:18:52;14.77;;;5.75;;
72939;SDS011;61094;51.154;13.570;2022-12-11T11:21:23;15.80;;;4.95;;
72939;SDS011;61094;51.154;13.570;2022-12-11T11:23:53;9.00;;;3.47;;
72939;SDS011;61094;51.154;13.570;2022-12-11T11:26:20;13.70;;;5.82;;
72939;SDS011;61094;51.154;13.570;2022-12-11T11:28:48;12.75;;;4.38;;
72939;SDS011;61094;51.154;13.570;2022-12-11T11:31:17;13.02;;;4.47;;
72939;SDS011;61094;51.154;13.570;2022-12-11T11:33:49;10.73;;;4.65;;
72939;SDS011;61094;51.154;13.570;2022-12-11T11:36:22;7.50;;;3.30;;
72939;SDS011;61094;51.154;13.570;2022-12-11T11:38:57;10.00;;;3.42;;
72939;SDS011;61094;51.154;13.570;2022-12-11T11:41:33;7.70;;;3.17;;
72939;SDS011;61094;51.154;13.570;2022-12-11T11:44:09;11.60;;;3.72;;
72939;SDS011;61094;51.154;13.570;2022-12-11T11:46:38;7.68;;;3.30;;
72939;SDS011;61094;51.154;13.570;2022-12-11T11:49:12;10.05;;;4.00;;
72939;SDS011;61094;51.154;13.570;2022-12-11T11:51:49;15.57;;;4.65;;
72939;SDS011;61094;51.154;13.570;2022-12-11T11:54:23;8.55;;;3.50;;
72939;SDS011;61094;51.154;13.570;2022-12-11T11:56:56;10.73;;;5.13;;
72939;SDS011;61094;51.154;13.570;2022-12-11T11:59:26;9.70;;;3.10;;
72939;SDS011;61094;51.154;13.570;2022-12-11T12:01:58;10.48;;;4.47;;
72939;SDS011;61094;51.154;13.570;2022-12-11T12:04:28;12.27;;;4.43;;
72939;SDS011;61094;51.154;13.570;2022-12-11T12:07:10;9.40;;;4.43;;
72939;SDS011;61094;51.154;13.570;2022-12-11T12:09:50;13.13;;;4.88;;
72939;SDS011;61094;51.154;13.570;2022-12-11T12:12:26;10.45;;;3.75;;
72939;SDS011;61094;51.154;13.570;2022-12-11T12:15:05;13.80;;;4.50;;
72939;SDS011;61094;51.154;13.570;2022-12-11T12:17:45;11.65;;;4.13;;
72939;SDS011;61094;51.154;13.570;2022-12-11T12:20:19;8.75;;;3.28;;
72939;SDS011;61094;51.154;13.570;2022-12-11T12:25:27;6.97;;;3.08;;
72939;SDS011;61094;51.154;13.570;2022-12-11T12:28:02;11.50;;;3.95;;
72939;SDS011;61094;51.154;13.570;2022-12-11T12:30:43;17.85;;;5.47;;
72939;SDS011;61094;51.154;13.570;2022-12-11T12:33:19;10.07;;;4.40;;
72939;SDS011;61094;51.154;13.570;2022-12-11T12:35:59;17.13;;;5.82;;
72939;SDS011;61094;51.154;13.570;2022-12-11T12:38:33;17.67;;;7.15;;
72939;SDS011;61094;51.154;13.570;2022-12-11T12:41:07;15.13;;;4.88;;
72939;SDS011;61094;51.154;13.570;2022-12-11T12:43:50;10.27;;;4.65;;
72939;SDS011;61094;51.154;13.570;2022-12-11T12:46:28;16.30;;;4.78;;
72939;SDS011;61094;51.154;13.570;2022-12-11T12:49:06;11.45;;;3.80;;
72939;SDS011;61094;51.154;13.570;2022-12-11T12:51:40;11.15;;;4.45;;
72939;SDS011;61094;51.154;13.570;2022-12-11T12:54:08;10.88;;;4.63;;
72939;SDS011;61094;51.154;13.570;2022-12-11T12:56:40;10.63;;;4.93;;
72939;SDS011;61094;51.154;13.570;2022-12-11T12:59:17;8.77;;;2.78;;
72939;SDS011;61094;51.154;13.570;2022-12-11T13:01:45;12.10;;;4.95;;
72939;SDS011;61094;51.154;13.570;2022-12-11T13:04:25;10.32;;;4.57;;
72939;SDS011;61094;51.154;13.570;2022-12-11T13:06:57;9.70;;;4.30;;
72939;SDS011;61094;51.154;13.570;2022-12-11T13:09:24;8.10;;;3.22;;
72939;SDS011;61094;51.154;13.570;2022-12-11T13:11:53;14.43;;;5.70;;
72939;SDS011;61094;51.154;13.570;2022-12-11T13:14:24;10.38;;;2.55;;
72939;SDS011;61094;51.154;13.570;2022-12-11T13:17:04;6.97;;;2.85;;
72939;SDS011;61094;51.154;13.570;2022-12-11T13:19:33;9.73;;;3.80;;
72939;SDS011;61094;51.154;13.570;2022-12-11T13:22:03;8.95;;;4.25;;
72939;SDS011;61094;51.154;13.570;2022-12-11T13:24:45;11.82;;;4.95;;
72939;SDS011;61094;51.154;13.570;2022-12-11T13:27:22;9.45;;;4.43;;
72939;SDS011;61094;51.154;13.570;2022-12-11T13:29:50;6.10;;;2.78;;
72939;SDS011;61094;51.154;13.570;2022-12-11T13:32:21;15.25;;;5.90;;
72939;SDS011;61094;51.154;13.570;2022-12-11T13:34:50;7.85;;;3.70;;
72939;SDS011;61094;51.154;13.570;2022-12-11T13:37:22;8.88;;;3.95;;
72939;SDS011;61094;51.154;13.570;2022-12-11T13:39:52;12.60;;;5.07;;
72939;SDS011;61094;51.154;13.570;2022-12-11T13:42:21;9.80;;;4.25;;
72939;SDS011;61094;51.154;13.570;2022-12-11T13:44:52;16.92;;;3.95;;
72939;SDS011;61094;51.154;13.570;2022-12-11T13:47:19;12.98;;;3.92;;
72939;SDS011;61094;51.154;13.570;2022-12-11T13:49:47;9.23;;;3.65;;
72939;SDS011;61094;51.154;13.570;2022-12-11T13:52:19;10.70;;;5.13;;
72939;SDS011;61094;51.154;13.570;2022-12-11T13:54:49;9.48;;;4.40;;
72939;SDS011;61094;51.154;13.570;2022-12-11T13:59:46;5.28;;;1.60;;
72939;SDS011;61094;51.154;13.570;2022-12-11T14:02:15;9.85;;;4.80;;
72939;SDS011;61094;51.154;13.570;2022-12-11T14:04:45;9.02;;;3.50;;
72939;SDS011;61094;51.154;13.570;2022-12-11T14:07:14;11.32;;;3.58;;
72939;SDS011;61094;51.154;13.570;2022-12-11T14:09:45;7.90;;;3.15;;
72939;SDS011;61094;51.154;13.570;2022-12-11T14:12:16;9.30;;;3.78;;
72939;SDS011;61094;51.154;13.570;2022-12-11T14:14:45;12.98;;;5.00;;
72939;SDS011;61094;51.154;13.570;2022-12-11T14:17:18;17.02;;;5.30;;
72939;SDS011;61094;51.154;13.570;2022-12-11T14:19:49;11.73;;;4.00;;
72939;SDS011;61094;51.154;13.570;2022-12-11T14:22:16;7.68;;;3.95;;
72939;SDS011;61094;51.154;13.570;2022-12-11T14:24:48;11.50;;;4.20;;
72939;SDS011;61094;51.154;13.570;2022-12-11T14:27:18;7.10;;;3.60;;
72939;SDS011;61094;51.154;13.570;2022-12-11T14:29:45;11.75;;;4.18;;
72939;SDS011;61094;51.154;13.570;2022-12-11T14:32:15;12.55;;;4.90;;
72939;SDS011;61094;51.154;13.570;2022-12-11T14:34:45;12.20;;;4.63;;
72939;SDS011;61094;51.154;13.570;2022-12-11T14:37:15;9.52;;;4.65;;
72939;SDS011;61094;51.154;13.570;2022-12-11T14:39:45;12.07;;;4.13;;
72939;SDS011;61094;51.154;13.570;2022-12-11T14:42:16;10.45;;;3.83;;
72939;SDS011;61094;51.154;13.570;2022-12-11T14:44:47;6.22;;;3.05;;
72939;SDS011;61094;51.154;13.570;2022-12-11T14:47:19;13.52;;;4.82;;
72939;SDS011;61094;51.154;13.570;2022-12-11T14:49:48;15.13;;;5.18;;
72939;SDS011;61094;51.154;13.570;2022-12-11T14:52:21;6.07;;;2.80;;
72939;SDS011;61094;51.154;13.570;2022-12-11T14:54:51;13.75;;;4.78;;